Time;durP1;ratioP1;P1;durP2;ratioP2;P2;SDS_P1;SDS_P2;PMS_P1;PMS_P2;Temp;Humidity;BMP_temperature;BMP_pressure;BME280_temperature;BME280_humidity;BME280_pressure;Samples;Min_cycle;Max_cycle;Signal;HPM_P1;HPM_P2
2021/06/23 00:00:38;;;;;;;8.13;2.45;;;;;;;13.75;67.58;101456.53;5052364;28;20398;-71
2021/06/23 00:03:04;;;;;;;10.48;3.15;;;;;;;13.75;67.66;101456.53;5052002;28;20063;-71
2021/06/23 00:05:30;;;;;;;7.47;2.13;;;;;;;13.76;67.86;101453.13;5048234;28;20037;-72
2021/06/23 00:07:55;;;;;;;10.52;2.08;;;;;;;13.80;68.42;101460.22;5051299;28;20504;-71
2021/06/23 00:10:21;;;;;;;10.27;3.10;;;;;;;13.84;68.39;101456.97;5052281;28;20029;-72
2021/06/23 00:12:49;;;;;;;14.32;2.72;;;;;;;13.85;67.93;101454.47;5035097;28;20120;-72
2021/06/23 00:15:17;;;;;;;11.32;2.33;;;;;;;13.85;68.44;101448.41;5024018;28;20022;-72
2021/06/23 00:17:43;;;;;;;9.80;2.47;;;;;;;13.80;68.54;101455.06;5050118;28;20378;-72
2021/06/23 00:20:09;;;;;;;6.47;2.00;;;;;;;13.80;69.07;101460.22;5052125;28;20570;-73
2021/06/23 00:22:35;;;;;;;10.40;2.47;;;;;;;13.80;68.79;101455.06;5053859;28;20508;-72
2021/06/23 00:25:01;;;;;;;7.45;2.15;;;;;;;13.84;69.21;101456.97;5051888;28;20104;-72
2021/06/23 00:27:26;;;;;;;10.20;2.42;;;;;;;13.88;68.79;101470.16;5051958;28;20040;-72
2021/06/23 00:29:52;;;;;;;10.57;2.03;;;;;;;13.85;69.19;101474.28;5052112;28;20386;-72
2021/06/23 00:32:20;;;;;;;13.23;2.08;;;;;;;13.79;69.65;101468.81;5051636;28;20025;-72
2021/06/23 00:34:46;;;;;;;11.40;3.22;;;;;;;13.76;69.48;101469.53;5052875;28;20025;-72
2021/06/23 00:37:11;;;;;;;11.55;2.33;;;;;;;13.62;69.89;101471.47;5052339;28;20036;-72
2021/06/23 00:39:37;;;;;;;8.85;2.55;;;;;;;13.55;70.48;101469.38;5052596;28;20291;-72
2021/06/23 00:42:04;;;;;;;11.73;2.15;;;;;;;13.63;70.41;101473.22;5053135;28;20060;-72
2021/06/23 00:44:30;;;;;;;10.02;2.40;;;;;;;13.69;70.14;101470.03;5059325;28;20032;-72
2021/06/23 00:46:55;;;;;;;10.77;2.95;;;;;;;13.71;70.50;101466.72;5054214;28;20347;-72
2021/06/23 00:49:21;;;;;;;12.23;2.28;;;;;;;13.72;70.32;101468.50;5051890;28;20048;-72
2021/06/23 00:51:47;;;;;;;11.20;2.33;;;;;;;13.66;70.43;101457.84;5035031;28;20121;-72
2021/06/23 00:54:14;;;;;;;9.98;2.13;;;;;;;13.58;71.04;101461.75;5051324;28;20033;-72
2021/06/23 00:56:41;;;;;;;8.45;2.90;;;;;;;13.49;71.40;101453.53;5051576;28;20024;-72
2021/06/23 00:59:10;;;;;;;12.73;2.33;;;;;;;13.39;71.60;101446.97;5051358;28;20037;-72
2021/06/23 01:01:39;;;;;;;12.03;2.33;;;;;;;13.26;72.43;101445.47;5052453;28;20504;-71
2021/06/23 01:04:05;;;;;;;9.75;2.45;;;;;;;13.13;73.24;101455.16;5050997;28;20079;-71
2021/06/23 01:06:31;;;;;;;9.07;2.60;;;;;;;13.05;73.19;101437.47;5050658;28;20033;-71
2021/06/23 01:08:57;;;;;;;19.33;2.85;;;;;;;12.97;74.19;101426.72;5051407;28;20053;-71
2021/06/23 01:11:23;;;;;;;8.20;2.38;;;;;;;12.94;74.36;101436.91;5051229;28;20025;-71
2021/06/23 01:13:59;;;;;;;10.85;2.65;;;;;;;12.94;74.72;101431.75;5051013;28;20131;-70
2021/06/23 01:16:31;;;;;;;8.38;2.67;;;;;;;12.92;74.51;101433.34;5031764;28;20108;-71
2021/06/23 01:18:57;;;;;;;10.52;2.80;;;;;;;12.78;75.13;101430.94;5015076;28;20042;-71
2021/06/23 01:21:24;;;;;;;13.32;3.17;;;;;;;12.67;75.45;101424.31;5031759;28;20025;-71
2021/06/23 01:23:50;;;;;;;13.00;3.33;;;;;;;12.64;76.04;101426.75;5049247;28;20025;-71
2021/06/23 01:26:15;;;;;;;11.40;2.97;;;;;;;12.64;75.78;101437.06;5052172;28;20091;-71
2021/06/23 01:28:41;;;;;;;8.15;2.40;;;;;;;12.61;76.15;101447.25;5051315;28;20020;-71
2021/06/23 01:31:07;;;;;;;12.00;2.90;;;;;;;12.64;76.11;101437.94;5052172;28;20025;-71
2021/06/23 01:33:34;;;;;;;11.20;2.72;;;;;;;12.77;75.81;101444.66;5051044;28;20482;-71
2021/06/23 01:36:00;;;;;;;15.40;2.88;;;;;;;12.86;75.58;101445.16;5050200;28;20118;-71
2021/06/23 01:38:26;;;;;;;10.10;2.58;;;;;;;12.99;74.98;101438.03;5051008;28;20108;-71
2021/06/23 01:40:52;;;;;;;18.88;3.20;;;;;;;13.05;74.92;101440.94;5051220;28;20031;-71
2021/06/23 01:43:18;;;;;;;9.43;2.90;;;;;;;13.08;75.01;101446.28;5034332;28;20390;-71
2021/06/23 01:45:47;;;;;;;9.63;2.50;;;;;;;13.15;74.67;101445.78;5017414;28;20095;-72
2021/06/23 01:48:34;;;;;;;11.13;2.97;;;;;;;13.25;74.55;101438.47;5045669;28;20416;-72
2021/06/23 01:51:03;;;;;;;10.73;2.55;;;;;;;13.37;73.91;101449.50;5051648;28;20036;-71
2021/06/23 01:53:34;;;;;;;10.47;3.00;;;;;;;13.42;73.53;101450.63;5051098;28;20060;-71
2021/06/23 01:56:00;;;;;;;12.35;2.60;;;;;;;13.43;73.76;101449.84;5050567;28;20280;-72
2021/06/23 01:58:25;;;;;;;10.20;2.80;;;;;;;13.47;73.57;101444.81;5051148;28;20024;-71
2021/06/23 02:00:57;;;;;;;15.00;2.80;;;;;;;13.46;73.68;101449.06;5053787;28;20040;-72
2021/06/23 02:03:49;;;;;;;8.38;3.50;;;;;;;13.43;73.81;101449.84;5054769;28;20535;-71
2021/06/23 02:06:39;;;;;;;14.60;3.03;;;;;;;13.51;73.82;101457.97;5039155;28;20119;-71
2021/06/23 02:09:16;;;;;;;13.20;3.30;;;;;;;13.53;73.59;101466.69;5040255;28;20033;-71
2021/06/23 02:11:43;;;;;;;16.73;3.00;;;;;;;13.57;74.11;101468.63;5051613;28;20033;-71
2021/06/23 02:14:18;;;;;;;11.50;3.25;;;;;;;13.63;73.55;101468.06;5054135;28;20382;-71
2021/06/23 02:16:45;;;;;;;12.85;3.20;;;;;;;13.63;73.72;101478.41;5071615;28;20021;-71
2021/06/23 02:19:10;;;;;;;12.65;3.75;;;;;;;13.69;73.77;101473.53;5057258;28;20025;-74
2021/06/23 02:21:38;;;;;;;11.05;3.08;;;;;;;13.67;73.97;101475.16;5075474;28;20107;-74
2021/06/23 02:24:05;;;;;;;18.40;4.10;;;;;;;13.69;74.15;101473.53;5040900;28;20035;-73
2021/06/23 02:26:31;;;;;;;13.27;4.07;;;;;;;13.70;74.07;101470.13;5040709;28;20028;-74
2021/06/23 02:28:56;;;;;;;15.13;3.63;;;;;;;13.76;73.94;101479.00;5054426;28;20044;-72
2021/06/23 02:31:26;;;;;;;21.40;4.97;;;;;;;13.79;73.98;101479.16;5056774;28;20169;-74
2021/06/23 02:33:54;;;;;;;20.85;5.30;;;;;;;13.84;73.96;101472.50;5040494;28;20047;-73
2021/06/23 02:36:19;;;;;;;19.23;4.53;;;;;;;13.84;73.53;101472.50;5068086;28;20031;-72
2021/06/23 02:38:45;;;;;;;17.33;5.50;;;;;;;13.85;74.03;101479.47;5070528;28;20103;-74
2021/06/23 02:41:11;;;;;;;13.40;3.65;;;;;;;13.85;73.74;101484.66;5061159;28;20099;-73
2021/06/23 02:43:36;;;;;;;16.35;4.25;;;;;;;13.84;74.03;101482.88;5056186;28;20052;-74
2021/06/23 02:46:02;;;;;;;16.08;4.63;;;;;;;13.85;73.91;101489.81;5057062;28;20469;-74
2021/06/23 02:48:28;;;;;;;13.05;4.43;;;;;;;13.89;74.05;101486.56;5057462;28;20032;-75
2021/06/23 02:51:13;;;;;;;13.52;3.67;;;;;;;13.91;74.15;101490.13;5057215;28;20036;-74
2021/06/23 02:53:38;;;;;;;24.13;6.28;;;;;;;13.92;74.29;101502.25;5040681;28;20037;-74
2021/06/23 02:56:04;;;;;;;18.85;4.63;;;;;;;13.92;74.60;101507.44;5057550;28;20032;-75
2021/06/23 02:58:31;;;;;;;25.13;3.65;;;;;;;13.94;74.29;101505.81;5057408;28;20024;-74
2021/06/23 03:00:58;;;;;;;24.42;5.10;;;;;;;13.90;74.27;101506.47;5057244;28;20378;-75
2021/06/23 03:03:24;;;;;;;23.58;4.60;;;;;;;13.91;74.49;101510.84;5057411;28;20035;-74
2021/06/23 03:05:49;;;;;;;22.33;4.97;;;;;;;13.90;74.16;101514.25;5056941;28;20024;-74
2021/06/23 03:08:15;;;;;;;17.75;4.68;;;;;;;13.82;74.76;101516.47;5075060;28;20111;-74
2021/06/23 03:10:41;;;;;;;14.15;4.40;;;;;;;13.72;75.01;101520.28;5057112;28;20032;-74
2021/06/23 03:13:06;;;;;;;23.75;5.45;;;;;;;13.69;75.36;101514.97;5074644;28;20040;-74
2021/06/23 03:15:31;;;;;;;11.85;4.20;;;;;;;13.67;75.25;101515.69;5074582;28;20020;-74
2021/06/23 03:17:57;;;;;;;12.75;4.13;;;;;;;13.71;75.60;101512.44;5055957;28;20074;-73
2021/06/23 03:20:23;;;;;;;15.13;4.05;;;;;;;13.72;75.24;101519.38;5074896;28;20039;-74
2021/06/23 03:22:48;;;;;;;13.23;5.82;;;;;;;13.77;75.83;101517.03;5074693;28;20023;-74
2021/06/23 03:25:13;;;;;;;17.85;4.68;;;;;;;13.82;75.00;101520.75;5057015;28;20436;-74
2021/06/23 03:27:39;;;;;;;13.85;3.78;;;;;;;13.78;75.13;101524.00;5056348;28;20031;-74
2021/06/23 03:30:05;;;;;;;16.30;3.80;;;;;;;13.82;75.04;101526.84;5056295;28;20063;-74
2021/06/23 03:32:31;;;;;;;20.48;4.18;;;;;;;13.83;74.88;101532.88;5055857;28;20489;-74
2021/06/23 03:34:57;;;;;;;10.75;4.28;;;;;;;13.84;74.55;101537.25;5074062;28;20024;-74
2021/06/23 03:37:22;;;;;;;15.80;4.45;;;;;;;13.83;74.52;101543.25;5074502;28;20117;-74
2021/06/23 03:39:47;;;;;;;19.77;4.35;;;;;;;13.69;75.23;101556.38;5056701;28;20025;-74
2021/06/23 03:42:13;;;;;;;17.80;4.40;;;;;;;13.68;75.37;101549.44;5056495;28;20031;-73
2021/06/23 03:44:39;;;;;;;16.92;4.03;;;;;;;13.49;76.10;101551.88;5074402;28;20021;-74
2021/06/23 03:47:05;;;;;;;14.23;3.45;;;;;;;13.50;76.66;101558.84;5056323;28;20029;-74
2021/06/23 03:49:30;;;;;;;17.08;4.40;;;;;;;13.62;76.14;101559.47;5074192;28;20024;-74
2021/06/23 03:51:56;;;;;;;16.58;3.95;;;;;;;13.64;75.98;101557.84;5056231;28;20099;-75
2021/06/23 03:54:22;;;;;;;16.63;4.55;;;;;;;13.69;75.87;101556.38;5055963;28;20024;-74
2021/06/23 03:56:48;;;;;;;13.60;4.40;;;;;;;13.75;76.01;101560.09;5055973;28;20020;-74
2021/06/23 03:59:14;;;;;;;21.00;6.50;;;;;;;13.61;76.12;101557.69;5073994;28;20047;-74
2021/06/23 04:01:40;;;;;;;18.63;4.70;;;;;;;13.69;76.21;101561.56;5066146;28;20090;-74
2021/06/23 04:04:05;;;;;;;17.23;4.30;;;;;;;13.76;76.13;101557.56;5074010;28;20031;-74
2021/06/23 04:06:31;;;;;;;14.63;5.07;;;;;;;13.79;75.99;101569.78;5074763;28;20021;-74
2021/06/23 04:08:57;;;;;;;16.48;4.18;;;;;;;13.78;76.02;101570.59;5072716;28;20127;-74
2021/06/23 04:11:23;;;;;;;17.15;4.10;;;;;;;13.87;75.90;101581.44;5074074;28;20465;-74
2021/06/23 04:13:48;;;;;;;22.48;4.75;;;;;;;13.94;75.36;101583.50;5074186;28;20526;-73
2021/06/23 04:16:14;;;;;;;23.27;4.60;;;;;;;13.99;75.75;101587.22;5082904;28;20370;-74
2021/06/23 04:18:39;;;;;;;17.55;4.75;;;;;;;14.02;75.77;101582.19;5082267;28;20025;-74
2021/06/23 04:21:05;;;;;;;17.27;5.00;;;;;;;14.08;75.58;101580.72;5083339;28;20024;-74
2021/06/23 04:23:31;;;;;;;17.25;4.85;;;;;;;14.07;75.35;101584.13;5057595;28;20144;-75
2021/06/23 04:25:56;;;;;;;11.68;4.38;;;;;;;14.11;75.03;101581.78;5072446;28;20028;-75
2021/06/23 04:28:22;;;;;;;21.58;5.15;;;;;;;14.11;75.30;101580.88;5083752;28;20477;-75
2021/06/23 04:30:48;;;;;;;27.98;5.07;;;;;;;14.21;74.91;101577.91;5073694;28;20024;-75
2021/06/23 04:33:14;;;;;;;18.38;4.95;;;;;;;14.27;75.18;101587.72;5072367;28;20025;-74
2021/06/23 04:35:39;;;;;;;24.25;5.28;;;;;;;14.33;74.94;101593.19;5084045;28;20362;-74
2021/06/23 04:38:04;;;;;;;21.05;4.85;;;;;;;14.37;74.37;101589.94;5073326;28;20017;-75
2021/06/23 04:40:30;;;;;;;22.05;5.30;;;;;;;14.39;74.54;101585.72;5071837;28;20032;-75
2021/06/23 04:42:55;;;;;;;20.20;5.68;;;;;;;14.42;74.12;101572.03;5081310;28;20017;-75
2021/06/23 04:45:21;;;;;;;22.05;5.95;;;;;;;14.47;74.57;101567.97;5083720;28;20018;-76
2021/06/23 04:47:46;;;;;;;21.70;5.57;;;;;;;14.58;74.10;101563.28;5073416;28;20473;-75
2021/06/23 04:50:12;;;;;;;20.10;5.57;;;;;;;14.65;74.07;101560.16;5082051;28;20469;-75
2021/06/23 04:52:38;;;;;;;21.75;5.18;;;;;;;14.73;73.65;101558.84;5074050;28;20050;-76
2021/06/23 04:55:05;;;;;;;32.40;6.38;;;;;;;14.86;73.29;101559.44;5082499;28;20028;-75
2021/06/23 04:57:30;;;;;;;18.77;5.43;;;;;;;14.92;73.10;101569.19;5071841;28;20020;-74
2021/06/23 04:59:56;;;;;;;21.83;5.80;;;;;;;14.85;73.13;101574.09;5071948;28;20503;-76
2021/06/23 05:02:21;;;;;;;26.17;6.03;;;;;;;14.78;73.55;101572.03;5082172;28;20024;-75
2021/06/23 05:04:47;;;;;;;24.35;5.95;;;;;;;14.91;73.13;101578.69;5073260;28;20111;-75
2021/06/23 05:07:13;;;;;;;22.88;5.40;;;;;;;15.06;72.56;101573.31;5069686;28;20048;-75
2021/06/23 05:09:39;;;;;;;29.17;6.22;;;;;;;15.25;72.33;101564.66;5073320;28;20031;-75
2021/06/23 05:12:06;;;;;;;20.35;5.30;;;;;;;15.46;71.37;101554.34;5054106;28;20036;-74
2021/06/23 05:14:32;;;;;;;21.52;4.68;;;;;;;15.50;70.80;101555.34;5071067;28;20111;-74
2021/06/23 05:17:00;;;;;;;35.45;7.07;;;;;;;15.56;70.12;101559.94;5051071;28;20056;-74
2021/06/23 05:19:26;;;;;;;19.60;4.97;;;;;;;15.69;70.56;101554.44;5051172;28;20025;-75
2021/06/23 05:21:52;;;;;;;25.20;5.47;;;;;;;15.82;69.91;101562.75;5050955;28;20382;-74
2021/06/23 05:24:17;;;;;;;27.50;5.85;;;;;;;15.93;69.80;101569.31;5049636;28;20025;-75
2021/06/23 05:26:43;;;;;;;16.85;4.68;;;;;;;15.86;69.34;101569.84;5044678;28;20021;-74
2021/06/23 05:29:09;;;;;;;16.63;5.20;;;;;;;15.89;69.86;101564.81;5052200;28;20071;-74
2021/06/23 05:31:35;;;;;;;28.83;5.45;;;;;;;15.97;69.22;101560.84;5052008;28;20564;-74
2021/06/23 05:34:01;;;;;;;25.38;5.05;;;;;;;16.16;68.55;101559.00;5030555;28;20055;-74
2021/06/23 05:36:26;;;;;;;26.92;5.43;;;;;;;16.28;68.28;101554.28;5052139;28;20563;-75
2021/06/23 05:38:53;;;;;;;21.20;4.85;;;;;;;16.28;68.37;101559.50;5052294;28;20079;-74
2021/06/23 05:41:19;;;;;;;21.83;5.38;;;;;;;16.02;68.33;101556.72;5050899;28;20024;-75
2021/06/23 05:43:45;;;;;;;23.73;4.68;;;;;;;15.97;68.93;101560.84;5051182;28;20371;-74
2021/06/23 05:46:11;;;;;;;25.92;5.55;;;;;;;16.37;67.87;101564.19;5051219;28;20060;-75
2021/06/23 05:48:37;;;;;;;25.13;5.82;;;;;;;16.41;68.19;101570.38;5049769;28;20037;-75
2021/06/23 05:51:04;;;;;;;18.90;5.47;;;;;;;16.23;67.56;101581.81;5029845;28;20029;-75
2021/06/23 05:53:30;;;;;;;21.48;5.32;;;;;;;16.26;67.33;101575.88;5052983;28;20481;-75
2021/06/23 05:55:55;;;;;;;28.67;5.95;;;;;;;15.98;68.56;101579.94;5054773;28;20057;-76
2021/06/23 05:58:22;;;;;;;28.20;6.00;;;;;;;16.20;68.39;101576.47;5056040;28;20035;-75
2021/06/23 06:00:48;;;;;;;22.55;5.15;;;;;;;16.40;67.60;101584.19;5038636;28;20026;-73
2021/06/23 06:03:13;;;;;;;31.75;6.68;;;;;;;16.32;67.29;101579.59;5035240;28;20022;-74
2021/06/23 06:05:39;;;;;;;24.73;5.60;;;;;;;16.27;67.90;101578.50;5034983;28;20036;-73
2021/06/23 06:08:05;;;;;;;23.80;5.10;;;;;;;16.20;68.30;101581.69;5035158;28;20560;-74
2021/06/23 06:10:32;;;;;;;33.92;5.53;;;;;;;16.02;68.30;101587.91;5035230;28;20030;-74
2021/06/23 06:12:57;;;;;;;19.92;5.88;;;;;;;16.26;67.17;101592.34;5032504;28;20041;-73
2021/06/23 06:15:23;;;;;;;22.38;5.82;;;;;;;16.58;66.50;101579.75;5033009;28;20510;-74
2021/06/23 06:17:49;;;;;;;25.90;5.50;;;;;;;17.17;64.80;101581.13;5034074;28;20030;-70
2021/06/23 06:20:14;;;;;;;21.25;6.53;;;;;;;17.45;63.73;101583.00;5033710;28;20025;-71
2021/06/23 06:22:40;;;;;;;21.83;5.70;;;;;;;17.67;62.64;101589.88;5033833;28;20058;-71
2021/06/23 06:25:06;;;;;;;13.48;4.38;;;;;;;17.75;62.34;101587.56;5034523;28;20045;-71
2021/06/23 06:27:32;;;;;;;18.98;5.03;;;;;;;18.06;61.16;101578.19;5034736;28;20108;-70
2021/06/23 06:29:58;;;;;;;20.05;5.05;;;;;;;18.22;61.69;101590.03;5017362;28;20470;-71
2021/06/23 06:32:23;;;;;;;16.33;5.07;;;;;;;17.79;62.10;101605.06;5034309;28;20025;-70
2021/06/23 06:34:49;;;;;;;23.40;5.30;;;;;;;17.56;62.50;101611.19;5035454;28;20031;-71
2021/06/23 06:37:15;;;;;;;17.00;5.13;;;;;;;17.67;62.29;101609.84;5034426;28;20064;-69
2021/06/23 06:39:41;;;;;;;19.50;4.63;;;;;;;17.76;63.16;101604.97;5035486;28;20052;-71
2021/06/23 06:42:07;;;;;;;16.20;4.45;;;;;;;17.91;63.18;101614.13;5035506;28;20029;-70
2021/06/23 06:44:33;;;;;;;12.85;3.95;;;;;;;17.97;60.18;101614.34;5035276;28;20028;-70
2021/06/23 06:47:00;;;;;;;18.60;5.07;;;;;;;17.88;59.65;101619.25;5035430;28;20029;-71
2021/06/23 06:49:28;;;;;;;14.27;5.28;;;;;;;18.09;61.22;101625.22;5035463;28;20083;-70
2021/06/23 06:51:58;;;;;;;19.30;5.32;;;;;;;18.15;59.71;101623.66;5035208;28;20113;-70
2021/06/23 06:54:25;;;;;;;17.67;5.30;;;;;;;18.27;59.92;101629.28;5041939;28;20055;-70
2021/06/23 06:56:51;;;;;;;14.60;4.30;;;;;;;18.13;61.09;101630.53;5035032;28;20539;-71
2021/06/23 06:59:18;;;;;;;13.65;3.97;;;;;;;18.18;60.53;101623.75;5033952;28;20101;-73
2021/06/23 07:01:44;;;;;;;13.05;3.80;;;;;;;18.26;60.06;101632.72;5034173;28;20041;-74
2021/06/23 07:04:10;;;;;;;10.38;3.53;;;;;;;18.76;58.14;101639.56;5016215;28;20025;-74
2021/06/23 07:06:36;;;;;;;15.75;4.18;;;;;;;18.79;58.49;101634.44;5035231;28;20039;-76
2021/06/23 07:09:01;;;;;;;17.60;3.92;;;;;;;19.44;57.31;101633.75;5033526;28;20036;-74
2021/06/23 07:11:27;;;;;;;17.02;3.63;;;;;;;19.93;55.24;101626.41;5034907;28;20439;-75
2021/06/23 07:13:52;;;;;;;10.60;3.40;;;;;;;20.37;53.58;101628.38;5036635;28;20498;-75
2021/06/23 07:16:17;;;;;;;14.00;3.75;;;;;;;20.17;53.79;101613.94;5035052;28;20029;-74
2021/06/23 07:18:45;;;;;;;19.40;4.22;;;;;;;19.69;53.53;101610.94;5034478;28;20017;-74
2021/06/23 07:21:16;;;;;;;15.13;4.07;;;;;;;19.71;54.25;101619.72;5016847;28;20483;-74
2021/06/23 07:23:41;;;;;;;16.88;3.97;;;;;;;19.82;54.95;101612.13;5033459;28;20060;-76
2021/06/23 07:26:07;;;;;;;8.43;3.15;;;;;;;19.61;53.39;101618.56;5026229;28;20116;-74
2021/06/23 07:28:45;;;;;;;12.50;4.22;;;;;;;19.90;53.72;101612.38;5031445;28;20101;-72
2021/06/23 07:31:14;;;;;;;11.27;3.35;;;;;;;20.22;53.42;101617.53;5031153;28;20490;-74
2021/06/23 07:33:49;;;;;;;17.83;4.28;;;;;;;20.39;52.32;101613.59;5047806;28;20639;-70
2021/06/23 07:38:58;;;;;;;10.02;2.92;;;;;;;20.38;51.12;101614.44;5029001;28;20028;-72
2021/06/23 07:41:24;;;;;;;18.38;3.67;;;;;;;20.08;50.11;101610.22;5032761;28;20025;-72
2021/06/23 07:43:50;;;;;;;11.80;3.17;;;;;;;19.99;51.96;101625.69;5033583;28;20506;-72
2021/06/23 07:46:16;;;;;;;10.77;2.85;;;;;;;19.95;52.71;101618.63;5033422;28;20033;-72
2021/06/23 07:48:42;;;;;;;14.02;3.70;;;;;;;20.03;53.09;101611.84;5033458;28;20035;-71
2021/06/23 07:51:14;;;;;;;13.73;3.25;;;;;;;19.95;53.84;101624.72;5033113;28;20382;-72
2021/06/23 07:56:35;;;;;;;18.15;4.97;;;;;;;20.57;52.67;101628.88;5032168;28;20025;-72
2021/06/23 08:09:39;;;;;;;10.65;3.58;;;;;;;21.31;48.61;101645.34;5032740;28;20025;-75
2021/06/23 08:12:29;;;;;;;14.75;3.55;;;;;;;21.14;50.32;101638.88;5031089;28;20045;-76
2021/06/23 08:14:51;;;;;;;13.23;3.47;;;;;;;20.99;50.44;101637.69;5031288;28;20474;-73
2021/06/23 08:17:16;;;;;;;11.73;3.20;;;;;;;21.16;49.95;101642.41;5033597;28;20025;-72
2021/06/23 08:19:44;;;;;;;14.10;3.45;;;;;;;21.16;49.77;101647.66;5033747;28;20458;-72
2021/06/23 08:22:11;;;;;;;13.75;3.15;;;;;;;20.86;50.59;101648.75;5014129;28;20029;-73
2021/06/23 08:24:40;;;;;;;11.43;3.55;;;;;;;20.70;50.23;101648.38;5030539;28;20140;-74
2021/06/23 08:27:07;;;;;;;12.82;4.05;;;;;;;20.64;50.20;101642.97;5027741;28;20049;-72
2021/06/23 08:29:33;;;;;;;15.60;3.60;;;;;;;20.60;50.79;101651.59;5012841;28;20034;-72
2021/06/23 08:31:59;;;;;;;13.63;4.03;;;;;;;20.96;51.30;101650.72;5018695;28;20029;-72
2021/06/23 08:34:29;;;;;;;12.00;3.20;;;;;;;21.47;50.44;101652.66;5011924;28;20040;-71
2021/06/23 08:36:55;;;;;;;18.13;4.10;;;;;;;21.57;48.56;101655.47;5029547;28;20044;-72
2021/06/23 08:39:21;;;;;;;14.50;3.38;;;;;;;21.40;49.57;101656.88;5012219;28;20493;-71
2021/06/23 08:41:46;;;;;;;10.90;3.03;;;;;;;21.16;48.68;101658.13;5027775;28;20033;-71
2021/06/23 08:44:13;;;;;;;10.10;3.13;;;;;;;21.10;48.79;101660.63;5012554;28;20466;-71
2021/06/23 08:46:40;;;;;;;11.10;3.33;;;;;;;21.38;49.44;101656.84;5028686;28;20044;-71
2021/06/23 08:49:07;;;;;;;8.32;3.00;;;;;;;21.40;48.64;101657.78;5027916;28;20025;-71
2021/06/23 08:51:53;;;;;;;12.55;2.92;;;;;;;21.66;48.92;101661.78;5028198;28;20032;-72
2021/06/23 08:54:19;;;;;;;18.00;3.13;;;;;;;21.96;49.04;101658.00;5015745;28;20045;-72
2021/06/23 08:56:45;;;;;;;13.50;3.38;;;;;;;22.58;47.46;101653.81;5025049;28;20029;-71
2021/06/23 08:59:12;;;;;;;10.82;3.28;;;;;;;22.95;46.64;101659.63;5026043;28;20372;-70
2021/06/23 09:01:42;;;;;;;12.05;3.30;;;;;;;22.83;46.50;101654.19;5028086;28;20014;-74
2021/06/23 09:08:20;;;;;;;14.30;3.28;;;;;;;23.84;44.55;101643.16;5020458;28;20083;-71
2021/06/23 09:10:46;;;;;;;9.30;3.00;;;;;;;23.57;44.34;101657.78;5024011;28;20112;-74
2021/06/23 09:13:17;;;;;;;14.80;4.15;;;;;;;23.47;44.08;101664.69;5007650;28;20046;-72
2021/06/23 09:16:00;;;;;;;10.95;2.97;;;;;;;23.00;43.76;101663.19;5010099;28;20091;-73
2021/06/23 09:18:37;;;;;;;8.13;2.58;;;;;;;22.80;43.98;101654.13;5027798;28;20021;-74
2021/06/23 09:21:12;;;;;;;10.57;3.60;;;;;;;23.86;43.33;101649.34;5026227;28;20033;-72
2021/06/23 09:23:58;;;;;;;10.23;3.53;;;;;;;24.58;40.90;101658.75;5026835;28;20399;-72
2021/06/23 09:26:37;;;;;;;16.52;3.42;;;;;;;24.69;38.72;101664.09;5026044;28;20387;-75
2021/06/23 09:29:08;;;;;;;11.50;3.00;;;;;;;24.89;39.46;101663.34;5024849;28;20360;-73
2021/06/23 09:32:01;;;;;;;10.48;3.28;;;;;;;25.47;39.66;101656.63;5028467;28;20026;-74
2021/06/23 09:34:55;;;;;;;13.25;2.90;;;;;;;24.95;38.84;101658.16;5027909;28;20045;-73
2021/06/23 09:37:31;;;;;;;7.07;2.75;;;;;;;24.70;39.00;101667.63;5010768;28;20063;-72
2021/06/23 09:40:17;;;;;;;8.90;2.63;;;;;;;26.83;36.40;101655.88;5027528;28;20540;-74
2021/06/23 09:42:45;;;;;;;7.82;2.58;;;;;;;28.99;32.40;101655.31;5027874;28;20029;-72
2021/06/23 09:45:15;;;;;;;9.95;2.60;;;;;;;27.60;33.18;101648.56;5027949;28;20022;-73
2021/06/23 09:47:44;;;;;;;11.50;2.53;;;;;;;30.82;28.84;101651.66;5029061;28;20417;-73
2021/06/23 09:50:21;;;;;;;10.32;2.95;;;;;;;32.51;26.04;101646.97;5028924;28;20022;-72
2021/06/23 09:52:58;;;;;;;9.52;2.60;;;;;;;32.28;25.71;101651.06;5028429;28;20041;-71
2021/06/23 09:55:42;;;;;;;9.32;2.42;;;;;;;31.41;26.44;101641.63;5027238;28;20025;-71
2021/06/23 09:58:12;;;;;;;6.95;2.30;;;;;;;31.63;27.51;101652.66;5030068;28;20033;-71
2021/06/23 10:01:06;;;;;;;6.22;2.08;;;;;;;28.88;28.96;101643.06;5028722;28;20029;-73
2021/06/23 10:03:51;;;;;;;8.32;2.70;;;;;;;27.05;32.88;101640.84;5009154;28;20364;-72
2021/06/23 10:06:28;;;;;;;12.38;2.70;;;;;;;25.42;35.48;101642.53;5024786;28;20025;-72
2021/06/23 10:09:24;;;;;;;12.07;2.80;;;;;;;24.55;37.81;101632.41;5028784;28;20022;-75
2021/06/23 10:11:55;;;;;;;9.52;2.75;;;;;;;24.59;39.72;101620.13;5029336;28;20076;-72
2021/06/23 10:14:22;;;;;;;6.10;2.88;;;;;;;25.13;38.80;101624.84;5020232;28;20644;-73
2021/06/23 10:16:50;;;;;;;7.15;2.30;;;;;;;24.38;38.96;101627.00;5024946;28;20032;-72
2021/06/23 10:19:17;;;;;;;7.85;2.00;;;;;;;24.02;39.31;101631.09;5031769;28;20385;-74
2021/06/23 10:21:45;;;;;;;6.93;2.30;;;;;;;25.20;37.83;101643.31;5014989;28;20033;-72
2021/06/23 10:24:19;;;;;;;11.60;2.40;;;;;;;26.46;35.71;101638.31;5015818;28;20040;-74
2021/06/23 10:26:49;;;;;;;8.00;2.28;;;;;;;26.03;36.88;101625.09;5031077;28;20047;-75
2021/06/23 10:29:25;;;;;;;8.68;2.15;;;;;;;25.62;36.89;101625.03;5031762;28;20033;-72
2021/06/23 10:31:51;;;;;;;7.95;2.30;;;;;;;25.02;37.24;101628.31;5031477;28;20029;-71
2021/06/23 10:34:18;;;;;;;9.90;2.13;;;;;;;24.72;38.62;101624.59;5048600;28;20055;-71
2021/06/23 10:36:46;;;;;;;10.35;2.80;;;;;;;24.00;38.64;101632.84;5031178;28;20122;-71
2021/06/23 10:39:15;;;;;;;8.40;2.83;;;;;;;23.75;41.08;101632.53;5014677;28;20033;-71
2021/06/23 10:41:46;;;;;;;17.77;3.60;;;;;;;24.24;41.61;101631.28;5053106;28;20040;-71
2021/06/23 10:44:32;;;;;;;9.85;2.90;;;;;;;27.21;35.16;101646.06;5018212;28;20036;-71
2021/06/23 10:47:00;;;;;;;10.60;3.08;;;;;;;27.98;33.42;101637.69;5053208;28;20047;-71
2021/06/23 10:49:53;;;;;;;12.73;2.83;;;;;;;26.59;34.64;101641.81;5019394;28;20406;-71
2021/06/23 10:52:25;;;;;;;12.15;3.08;;;;;;;26.20;35.48;101643.59;5053089;28;20343;-71
2021/06/23 10:55:03;;;;;;;8.82;2.33;;;;;;;29.08;32.01;101651.66;5052692;28;20021;-71
2021/06/23 10:57:37;;;;;;;8.82;2.72;;;;;;;27.42;32.83;101651.25;5053605;28;20033;-71
2021/06/23 11:00:31;;;;;;;7.35;2.22;;;;;;;26.39;34.42;101644.47;5035953;28;20470;-73
2021/06/23 11:03:05;;;;;;;9.20;2.58;;;;;;;26.05;36.35;101653.22;5053433;28;20470;-73
2021/06/23 11:05:37;;;;;;;7.38;2.30;;;;;;;26.82;34.36;101654.94;5037316;28;20029;-74
2021/06/23 11:08:20;;;;;;;8.80;2.67;;;;;;;28.39;32.83;101647.97;5054791;28;20025;-73
2021/06/23 11:10:47;;;;;;;6.05;1.95;;;;;;;29.71;31.41;101647.31;5054233;28;20086;-73
2021/06/23 11:13:18;;;;;;;8.65;2.35;;;;;;;30.58;29.13;101655.63;5054099;28;20045;-73
2021/06/23 11:15:46;;;;;;;8.43;2.70;;;;;;;30.77;28.78;101650.88;5054845;28;20079;-73
2021/06/23 11:18:18;;;;;;;7.70;2.63;;;;;;;29.70;30.12;101645.56;5054392;28;20052;-71
2021/06/23 11:20:56;;;;;;;8.40;3.00;;;;;;;27.79;33.74;101660.78;5054856;28;20098;-71
2021/06/23 11:23:41;;;;;;;11.38;3.35;;;;;;;26.15;34.74;101664.72;5052217;28;21739;-71
2021/06/23 11:26:19;;;;;;;10.82;2.90;;;;;;;25.03;38.60;101661.72;5025656;28;20390;-71
2021/06/23 11:28:48;;;;;;;13.65;3.65;;;;;;;24.59;40.12;101659.63;5054635;28;20031;-71
2021/06/23 11:31:14;;;;;;;11.50;3.03;;;;;;;24.50;39.74;101656.06;5054513;28;20020;-71
2021/06/23 11:33:39;;;;;;;7.57;2.10;;;;;;;24.69;39.61;101655.31;5036976;28;20099;-71
2021/06/23 11:36:08;;;;;;;10.63;2.83;;;;;;;25.05;37.61;101657.31;5053443;28;20102;-71
2021/06/23 11:38:34;;;;;;;9.15;3.00;;;;;;;25.49;37.78;101649.59;5036905;28;20028;-70
2021/06/23 11:41:02;;;;;;;9.65;2.83;;;;;;;25.63;36.46;101647.03;5036511;28;20025;-71
2021/06/23 11:43:27;;;;;;;8.43;2.63;;;;;;;26.48;34.88;101660.31;5036854;28;20033;-71
2021/06/23 11:45:53;;;;;;;8.48;2.53;;;;;;;26.82;34.42;101660.25;5036624;28;20517;-71